Time;durP1;ratioP1;P1;durP2;ratioP2;P2;SDS_P1;SDS_P2;PMS_P1;PMS_P2;Temp;Humidity;BMP_temperature;BMP_pressure;BME280_temperature;BME280_humidity;BME280_pressure;Samples;Min_cycle;Max_cycle;Signal;HPM_P1;HPM_P2
2023/08/18 00:00:12;;;;;;;3.63;1.90;;;23.40;99.90;;;;;;4990351;28;20030;-69
2023/08/18 00:02:39;;;;;;;4.65;2.58;;;23.40;99.90;;;;;;4991867;28;20049;-70
2023/08/18 00:05:07;;;;;;;4.97;2.50;;;23.20;99.90;;;;;;4991583;28;20038;-70
2023/08/18 00:07:33;;;;;;;4.80;2.58;;;23.10;99.90;;;;;;4992728;28;20068;-70
2023/08/18 00:10:00;;;;;;;6.72;2.78;;;23.10;99.90;;;;;;4991576;28;20057;-69
2023/08/18 00:12:26;;;;;;;3.80;2.70;;;22.80;99.90;;;;;;4991791;28;20044;-70
2023/08/18 00:14:52;;;;;;;6.95;2.70;;;22.50;99.90;;;;;;4992475;28;20117;-69
2023/08/18 00:17:18;;;;;;;3.80;2.50;;;22.60;99.90;;;;;;4984596;28;20072;-69
2023/08/18 00:19:44;;;;;;;4.72;2.20;;;22.60;99.90;;;;;;4991491;28;20027;-69
2023/08/18 00:22:10;;;;;;;3.95;2.33;;;22.40;99.90;;;;;;4992913;28;20026;-69
2023/08/18 00:24:36;;;;;;;4.10;2.50;;;22.20;99.90;;;;;;4990922;28;20030;-69
2023/08/18 00:27:02;;;;;;;5.53;2.33;;;22.20;99.90;;;;;;4993414;28;20109;-69
2023/08/18 00:29:28;;;;;;;3.15;2.00;;;22.20;99.90;;;;;;4992118;28;20042;-69
2023/08/18 00:31:54;;;;;;;6.55;2.83;;;22.30;99.90;;;;;;4993635;28;20372;-69
2023/08/18 00:34:19;;;;;;;6.00;2.85;;;22.20;99.90;;;;;;4990404;28;20483;-70
2023/08/18 00:36:45;;;;;;;6.68;3.25;;;22.20;99.90;;;;;;4991972;28;20475;-69
2023/08/18 00:39:11;;;;;;;7.75;3.58;;;22.10;99.90;;;;;;4992314;28;20446;-69
2023/08/18 00:41:36;;;;;;;4.72;2.80;;;22.10;99.90;;;;;;4993311;28;20053;-69
2023/08/18 00:44:02;;;;;;;4.85;2.55;;;22.20;99.90;;;;;;4991384;28;20145;-69
2023/08/18 00:46:30;;;;;;;16.60;2.92;;;22.20;99.90;;;;;;4993108;28;20034;-69
2023/08/18 00:49:01;;;;;;;4.32;2.50;;;22.30;99.90;;;;;;4992359;28;20037;-69
2023/08/18 00:51:26;;;;;;;;;;;22.10;99.90;;;;;;4991826;28;20046;-69
2023/08/18 00:53:53;;;;;;;4.88;2.53;;;22.00;99.90;;;;;;5006324;28;19935;-70
2023/08/18 00:56:21;;;;;;;6.35;3.25;;;21.90;99.90;;;;;;4959559;28;20506;-69
2023/08/18 00:58:47;;;;;;;5.38;2.63;;;22.00;99.90;;;;;;4991110;28;20034;-69
2023/08/18 01:01:13;;;;;;;4.95;2.97;;;22.10;99.90;;;;;;4991619;28;20461;-69
2023/08/18 01:03:39;;;;;;;5.95;3.33;;;22.20;99.90;;;;;;4991927;28;20125;-69
2023/08/18 01:06:05;;;;;;;6.68;2.80;;;22.20;99.90;;;;;;4982194;28;20402;-68
2023/08/18 01:08:32;;;;;;;4.07;2.17;;;22.30;99.90;;;;;;4988412;28;20144;-69
2023/08/18 01:11:19;;;;;;;4.72;2.70;;;22.30;99.90;;;;;;4990628;28;20029;-69
2023/08/18 01:13:56;;;;;;;5.60;2.83;;;22.20;99.90;;;;;;4989995;28;20065;-69
2023/08/18 01:16:28;;;;;;;5.78;3.65;;;22.10;99.90;;;;;;4988164;28;20053;-69
2023/08/18 01:18:55;;;;;;;6.30;3.17;;;21.90;99.90;;;;;;4990365;28;20030;-69
2023/08/18 01:21:25;;;;;;;7.20;3.38;;;22.00;99.90;;;;;;5000301;23;20060;-76
2023/08/18 01:23:51;;;;;;;6.70;2.55;;;22.00;99.90;;;;;;4967786;28;20023;-75
2023/08/18 01:26:17;;;;;;;7.97;3.08;;;21.90;99.90;;;;;;4968792;28;20392;-75
2023/08/18 01:28:43;;;;;;;4.30;2.38;;;21.80;99.90;;;;;;4972795;28;20403;-75
2023/08/18 01:31:28;;;;;;;4.22;2.70;;;21.80;99.90;;;;;;4952036;28;20128;-76
2023/08/18 01:34:00;;;;;;;4.85;2.67;;;21.80;99.90;;;;;;4951107;28;20688;-76
2023/08/18 01:36:38;;;;;;;5.82;3.03;;;21.70;99.90;;;;;;4951637;29;20039;-76
2023/08/18 01:39:06;;;;;;;5.85;2.85;;;21.60;99.90;;;;;;4952375;29;20590;-76
2023/08/18 01:41:33;;;;;;;4.15;2.80;;;21.80;99.90;;;;;;4951644;28;20039;-76
2023/08/18 01:44:05;;;;;;;7.07;3.20;;;21.80;99.90;;;;;;4951544;29;20443;-76
2023/08/18 01:46:30;;;;;;;5.63;3.08;;;21.70;99.90;;;;;;4951611;28;20035;-76
2023/08/18 01:48:56;;;;;;;4.30;2.70;;;21.70;99.90;;;;;;4952068;28;20563;-76
2023/08/18 01:51:22;;;;;;;4.85;2.25;;;21.70;99.90;;;;;;4960459;28;20151;-76
2023/08/18 01:53:49;;;;;;;4.45;2.72;;;21.60;99.90;;;;;;4952538;28;20551;-76
2023/08/18 01:56:15;;;;;;;5.05;2.80;;;21.50;99.90;;;;;;4960568;28;20110;-76
2023/08/18 01:58:41;;;;;;;4.03;2.90;;;21.40;99.90;;;;;;4936369;29;20046;-76
2023/08/18 02:01:07;;;;;;;4.88;2.80;;;21.40;99.90;;;;;;4960493;28;20061;-75
2023/08/18 02:03:33;;;;;;;14.50;3.00;;;21.40;99.90;;;;;;4951016;29;20673;-76
2023/08/18 02:05:58;;;;;;;6.75;2.83;;;21.30;99.90;;;;;;4960694;28;20053;-76
2023/08/18 02:08:24;;;;;;;6.65;2.92;;;21.30;99.90;;;;;;4953224;28;20110;-75
2023/08/18 02:10:50;;;;;;;6.28;3.35;;;21.40;99.90;;;;;;4960269;28;20078;-75
2023/08/18 02:13:16;;;;;;;5.55;3.40;;;21.40;99.90;;;;;;4952227;28;20509;-75
2023/08/18 02:15:45;;;;;;;5.45;2.40;;;21.40;99.90;;;;;;4950944;28;20043;-75
2023/08/18 02:18:11;;;;;;;4.53;2.58;;;21.50;99.90;;;;;;4951845;29;20074;-75
2023/08/18 02:20:38;;;;;;;5.75;3.00;;;21.40;99.90;;;;;;4958327;28;20038;-75
2023/08/18 02:23:04;;;;;;;4.32;3.00;;;21.40;99.90;;;;;;4953941;28;20023;-75
2023/08/18 02:25:30;;;;;;;5.70;2.90;;;21.40;99.90;;;;;;4956180;28;20052;-76
2023/08/18 02:27:56;;;;;;;4.47;2.60;;;21.30;99.90;;;;;;4953688;28;20103;-76
2023/08/18 02:30:22;;;;;;;9.90;2.85;;;21.40;99.90;;;;;;4935176;29;20093;-75
2023/08/18 02:32:48;;;;;;;9.00;2.78;;;21.50;99.90;;;;;;4951914;28;20035;-74
2023/08/18 02:35:14;;;;;;;5.53;2.97;;;21.50;99.90;;;;;;4953099;28;20033;-75
2023/08/18 02:37:40;;;;;;;6.30;3.70;;;21.50;99.90;;;;;;4957787;28;20024;-76
2023/08/18 02:40:08;;;;;;;6.20;3.08;;;21.40;99.90;;;;;;4952845;28;20069;-75
2023/08/18 02:42:35;;;;;;;6.38;2.58;;;21.40;99.90;;;;;;4957939;28;20110;-74
2023/08/18 02:45:01;;;;;;;5.35;3.08;;;21.40;99.90;;;;;;4953496;28;20443;-74
2023/08/18 02:47:27;;;;;;;4.93;2.78;;;21.30;99.90;;;;;;4955999;28;20039;-74
2023/08/18 02:49:53;;;;;;;5.10;3.10;;;21.20;99.90;;;;;;4955640;29;20031;-75
2023/08/18 02:52:19;;;;;;;5.80;2.70;;;21.20;99.90;;;;;;4963484;28;20083;-74
2023/08/18 02:54:45;;;;;;;6.30;3.08;;;21.10;99.90;;;;;;4955216;28;20031;-74
2023/08/18 02:57:10;;;;;;;5.00;2.80;;;20.90;99.90;;;;;;4978623;28;20032;-75
2023/08/18 02:59:36;;;;;;;6.13;3.40;;;21.00;99.90;;;;;;4956236;28;20035;-75
2023/08/18 03:02:02;;;;;;;6.50;3.20;;;21.00;99.90;;;;;;4963515;28;20035;-75
2023/08/18 03:04:28;;;;;;;5.72;3.20;;;20.90;99.90;;;;;;4955546;29;20119;-75
2023/08/18 03:06:53;;;;;;;5.63;2.92;;;20.80;99.90;;;;;;4954604;28;20070;-75
2023/08/18 03:09:19;;;;;;;6.47;2.53;;;20.90;99.90;;;;;;4956303;29;20078;-75
2023/08/18 03:11:45;;;;;;;7.25;2.53;;;20.90;99.90;;;;;;4963559;28;20070;-75
2023/08/18 03:14:12;;;;;;;5.07;2.88;;;20.80;99.90;;;;;;4955109;28;20034;-75
2023/08/18 03:16:38;;;;;;;7.80;2.60;;;20.90;99.90;;;;;;4963449;28;20031;-75
2023/08/18 03:19:04;;;;;;;4.25;2.85;;;20.80;99.90;;;;;;4954852;28;20502;-76
2023/08/18 03:21:29;;;;;;;4.50;2.55;;;20.60;99.90;;;;;;4954043;29;20430;-76
2023/08/18 03:23:55;;;;;;;5.90;3.08;;;20.50;99.90;;;;;;4955297;28;20126;-76
2023/08/18 03:26:21;;;;;;;6.53;2.60;;;20.40;99.90;;;;;;4953689;28;20110;-76
2023/08/18 03:28:47;;;;;;;4.50;3.05;;;20.30;99.90;;;;;;4954919;29;20027;-76
2023/08/18 03:31:12;;;;;;;6.15;2.60;;;20.30;99.90;;;;;;4962946;28;20035;-76
2023/08/18 03:33:38;;;;;;;4.53;2.45;;;20.40;99.90;;;;;;4955306;28;20502;-75
2023/08/18 03:36:04;;;;;;;4.90;2.53;;;20.40;99.90;;;;;;4962931;28;20086;-75
2023/08/18 03:38:30;;;;;;;5.35;2.60;;;20.40;99.90;;;;;;4955638;28;20082;-75
2023/08/18 03:41:03;;;;;;;5.63;3.13;;;20.40;99.90;;;;;;4953616;28;20069;-76
2023/08/18 03:43:29;;;;;;;3.92;2.55;;;20.50;99.90;;;;;;4953560;29;20039;-76
2023/08/18 03:46:00;;;;;;;8.57;3.30;;;20.50;99.90;;;;;;4954041;29;20031;-76
2023/08/18 03:48:26;;;;;;;8.55;3.08;;;20.50;99.90;;;;;;4954333;29;20111;-76
2023/08/18 03:50:52;;;;;;;4.95;2.80;;;20.50;99.90;;;;;;4953663;29;20122;-76
2023/08/18 03:53:17;;;;;;;5.45;2.95;;;20.50;99.90;;;;;;4945381;28;20126;-76
2023/08/18 03:55:43;;;;;;;5.45;3.22;;;20.50;99.90;;;;;;4961326;28;20170;-76
2023/08/18 03:58:09;;;;;;;8.77;3.28;;;20.50;99.90;;;;;;4955002;28;20031;-76
2023/08/18 04:00:35;;;;;;;6.32;3.35;;;20.50;99.90;;;;;;4960270;28;20042;-76
2023/08/18 04:03:01;;;;;;;8.60;3.00;;;20.50;99.90;;;;;;4939440;29;20043;-76
2023/08/18 04:05:26;;;;;;;7.07;2.80;;;20.50;99.90;;;;;;4959037;28;20027;-76
2023/08/18 04:07:52;;;;;;;5.88;2.88;;;20.60;99.90;;;;;;4957572;28;20094;-76
2023/08/18 04:10:18;;;;;;;5.65;3.30;;;20.50;99.90;;;;;;4943073;28;20035;-74
2023/08/18 04:12:44;;;;;;;9.30;3.03;;;20.50;99.90;;;;;;4958394;28;20042;-74
2023/08/18 04:15:09;;;;;;;4.40;2.70;;;20.50;99.90;;;;;;4956508;28;20031;-74
2023/08/18 04:17:35;;;;;;;7.20;2.80;;;20.60;99.90;;;;;;4959442;28;20043;-74
2023/08/18 04:20:04;;;;;;;5.53;2.95;;;20.60;99.90;;;;;;4955119;28;20391;-75
2023/08/18 04:22:30;;;;;;;6.97;2.78;;;20.60;99.90;;;;;;4960290;28;20039;-74
2023/08/18 04:24:55;;;;;;;6.30;2.72;;;20.70;99.90;;;;;;4954612;28;20090;-75
2023/08/18 04:27:21;;;;;;;6.20;2.88;;;20.70;99.90;;;;;;4962180;28;20066;-75
2023/08/18 04:29:47;;;;;;;4.75;2.90;;;20.90;99.90;;;;;;4955017;28;20035;-75
2023/08/18 04:32:16;;;;;;;7.97;2.70;;;21.00;99.90;;;;;;4952634;29;20116;-78
2023/08/18 04:34:42;;;;;;;4.85;2.75;;;21.10;99.90;;;;;;4954081;28;20114;-76
2023/08/18 04:37:07;;;;;;;5.32;2.78;;;21.10;99.90;;;;;;4961816;28;20103;-76
2023/08/18 04:39:33;;;;;;;11.85;3.13;;;21.10;99.90;;;;;;4954380;28;20115;-75
2023/08/18 04:41:59;;;;;;;5.93;2.75;;;21.10;99.90;;;;;;4952426;28;20365;-76
2023/08/18 04:44:24;;;;;;;4.82;2.90;;;21.00;99.90;;;;;;4953758;28;20035;-75
2023/08/18 04:46:50;;;;;;;5.97;2.85;;;21.00;99.90;;;;;;4961890;28;20102;-76
2023/08/18 04:49:16;;;;;;;5.90;2.95;;;21.00;99.90;;;;;;4953158;29;20058;-76
2023/08/18 04:51:42;;;;;;;3.72;2.10;;;20.90;99.90;;;;;;4961460;28;20510;-76
2023/08/18 04:54:07;;;;;;;6.60;3.05;;;20.70;99.90;;;;;;4952223;28;20114;-76
2023/08/18 04:56:33;;;;;;;4.45;2.88;;;20.60;99.90;;;;;;4944588;28;20035;-76
2023/08/18 04:58:59;;;;;;;4.60;2.63;;;20.50;99.90;;;;;;4947944;28;20030;-75
2023/08/18 05:01:24;;;;;;;5.68;2.95;;;20.50;99.90;;;;;;4950253;28;20046;-76
2023/08/18 05:03:50;;;;;;;5.00;2.97;;;20.40;99.90;;;;;;4946872;28;20408;-70
2023/08/18 05:06:16;;;;;;;12.50;3.47;;;20.40;99.90;;;;;;4946861;28;20049;-69
2023/08/18 05:08:42;;;;;;;4.75;2.78;;;20.40;99.90;;;;;;4955582;28;20073;-68
2023/08/18 05:11:10;;;;;;;8.38;2.83;;;20.30;99.90;;;;;;4966370;28;20050;-69
2023/08/18 05:13:40;;;;;;;7.43;3.47;;;20.40;99.90;;;;;;4945073;28;20372;-66
2023/08/18 05:16:07;;;;;;;8.77;3.05;;;20.40;99.90;;;;;;4973353;28;20034;-78
2023/08/18 05:18:33;;;;;;;5.43;3.22;;;20.40;99.90;;;;;;4954002;28;20047;-78
2023/08/18 05:21:00;;;;;;;7.95;3.72;;;20.40;99.90;;;;;;4957394;28;20070;-78
2023/08/18 05:23:29;;;;;;;7.20;4.05;;;20.40;99.90;;;;;;4951629;28;20549;-78
2023/08/18 05:25:56;;;;;;;4.70;2.83;;;20.40;99.90;;;;;;4947540;29;20044;-78
2023/08/18 05:28:24;;;;;;;6.40;3.90;;;20.50;99.90;;;;;;4953536;28;20097;-78
2023/08/18 05:30:51;;;;;;;6.13;3.50;;;20.50;99.90;;;;;;4953400;28;20088;-78
2023/08/18 05:33:17;;;;;;;6.93;3.25;;;20.50;99.90;;;;;;4949200;28;20066;-78
2023/08/18 05:35:43;;;;;;;5.95;3.13;;;20.50;99.90;;;;;;4931345;29;20023;-78
2023/08/18 05:38:12;;;;;;;5.70;3.22;;;20.50;99.90;;;;;;4949220;29;20042;-79
2023/08/18 05:40:46;;;;;;;6.45;3.10;;;20.50;99.90;;;;;;4949223;28;20642;-77
2023/08/18 05:43:14;;;;;;;6.72;3.28;;;20.70;99.90;;;;;;4932780;29;20651;-76
2023/08/18 05:45:42;;;;;;;6.47;3.67;;;20.70;99.90;;;;;;4945142;28;20037;-77
2023/08/18 05:48:08;;;;;;;6.18;3.60;;;20.80;99.90;;;;;;4947978;28;20027;-78
2023/08/18 05:50:34;;;;;;;8.85;3.15;;;20.90;99.90;;;;;;4936128;29;20035;-79
2023/08/18 05:53:02;;;;;;;7.25;2.85;;;20.90;99.90;;;;;;4952844;28;20034;-77
2023/08/18 05:55:29;;;;;;;6.22;2.75;;;21.00;99.90;;;;;;4940280;29;20030;-76
2023/08/18 05:58:00;;;;;;;9.05;3.80;;;21.10;99.90;;;;;;4941924;29;20046;-75
2023/08/18 06:00:27;;;;;;;5.30;3.25;;;21.10;99.90;;;;;;4945568;29;20115;-75
2023/08/18 06:02:54;;;;;;;6.30;3.58;;;21.10;99.90;;;;;;4948986;28;20089;-77
2023/08/18 06:05:21;;;;;;;5.07;3.05;;;21.10;99.90;;;;;;4943938;28;20146;-78
2023/08/18 06:07:47;;;;;;;8.57;2.90;;;21.10;99.90;;;;;;4948484;29;20521;-77
2023/08/18 06:10:12;;;;;;;7.07;3.53;;;21.20;99.90;;;;;;4949947;28;20035;-77
2023/08/18 06:12:38;;;;;;;6.72;3.28;;;21.20;99.90;;;;;;4940275;28;20039;-77
2023/08/18 06:15:07;;;;;;;6.28;3.63;;;21.10;99.90;;;;;;4949560;29;20492;-77
2023/08/18 06:17:33;;;;;;;7.20;3.15;;;21.10;99.90;;;;;;4950262;28;20478;-78
2023/08/18 06:19:59;;;;;;;7.57;2.95;;;21.20;99.90;;;;;;4950609;28;20451;-77
2023/08/18 06:22:25;;;;;;;5.13;3.05;;;21.20;99.90;;;;;;4952065;28;20027;-77
2023/08/18 06:24:51;;;;;;;7.03;3.65;;;21.10;99.90;;;;;;4955115;28;20031;-77
2023/08/18 06:27:17;;;;;;;6.22;3.20;;;21.00;99.90;;;;;;4953772;28;20042;-77
2023/08/18 06:29:43;;;;;;;5.47;2.90;;;21.10;99.90;;;;;;4944725;29;20575;-77
2023/08/18 06:32:09;;;;;;;5.25;3.10;;;21.20;99.90;;;;;;4963234;28;20043;-77
2023/08/18 06:34:35;;;;;;;4.72;2.92;;;21.20;99.90;;;;;;4951642;28;20023;-77
2023/08/18 06:37:01;;;;;;;6.28;2.50;;;21.40;99.90;;;;;;4955628;28;20034;-77
2023/08/18 06:39:27;;;;;;;5.28;3.05;;;21.40;99.90;;;;;;4945561;28;20027;-77
2023/08/18 06:41:54;;;;;;;5.40;2.45;;;21.50;99.90;;;;;;4949757;29;20054;-76
2023/08/18 06:44:20;;;;;;;4.88;2.92;;;21.70;99.90;;;;;;4951772;28;20069;-77
2023/08/18 06:46:47;;;;;;;12.43;3.75;;;21.70;99.90;;;;;;4959670;28;20034;-74
2023/08/18 06:49:13;;;;;;;7.28;3.00;;;21.90;99.90;;;;;;4955357;28;20300;-74
2023/08/18 06:51:39;;;;;;;15.70;2.70;;;22.00;99.90;;;;;;4955700;28;20074;-73
2023/08/18 06:54:05;;;;;;;8.13;3.00;;;22.10;99.90;;;;;;4951290;28;20602;-74
2023/08/18 06:56:31;;;;;;;15.25;3.83;;;22.10;99.90;;;;;;4953793;28;20051;-73
2023/08/18 06:58:57;;;;;;;6.15;2.95;;;22.10;99.90;;;;;;4954571;29;20096;-71
2023/08/18 07:01:25;;;;;;;6.65;3.50;;;22.20;99.90;;;;;;4956533;28;20318;-71
2023/08/18 07:03:54;;;;;;;5.68;2.95;;;22.30;99.90;;;;;;4953545;28;20027;-71
2023/08/18 07:06:20;;;;;;;10.65;2.95;;;22.40;99.90;;;;;;4950226;28;20506;-72
2023/08/18 07:08:46;;;;;;;8.25;2.85;;;22.50;99.90;;;;;;4936003;29;20063;-72
2023/08/18 07:11:12;;;;;;;9.55;3.78;;;22.50;99.90;;;;;;4955627;28;20113;-71
2023/08/18 07:13:38;;;;;;;8.30;3.13;;;22.50;99.90;;;;;;4955136;28;20031;-71
2023/08/18 07:16:04;;;;;;;8.30;3.58;;;22.70;99.90;;;;;;4955664;28;20035;-72
2023/08/18 07:18:30;;;;;;;6.45;2.85;;;22.70;99.90;;;;;;4954874;28;20068;-71
2023/08/18 07:20:58;;;;;;;4.68;2.72;;;22.70;99.90;;;;;;4957898;28;20031;-72
2023/08/18 07:23:24;;;;;;;3.47;2.35;;;22.80;99.90;;;;;;4955128;28;20503;-71
2023/08/18 07:25:50;;;;;;;9.75;2.20;;;22.90;99.90;;;;;;4945279;29;20035;-72
2023/08/18 07:28:16;;;;;;;5.85;2.38;;;23.00;99.90;;;;;;4976227;23;20058;-64
2023/08/18 07:30:42;;;;;;;5.25;2.85;;;23.10;99.90;;;;;;4988102;28;20057;-65
2023/08/18 07:33:08;;;;;;;5.28;2.03;;;23.10;99.90;;;;;;4985930;28;20406;-62
2023/08/18 07:35:34;;;;;;;4.72;2.50;;;23.10;99.90;;;;;;4992525;28;20030;-68
2023/08/18 07:38:00;;;;;;;3.90;2.30;;;23.20;99.90;;;;;;4993861;28;20037;-68
2023/08/18 07:40:27;;;;;;;5.55;2.42;;;23.20;99.90;;;;;;4992678;28;20038;-68
2023/08/18 07:42:53;;;;;;;7.03;2.80;;;23.20;99.90;;;;;;4991397;28;20498;-68
2023/08/18 07:45:19;;;;;;;9.00;2.60;;;23.30;99.90;;;;;;4992541;28;20027;-66
2023/08/18 07:47:46;;;;;;;5.78;2.70;;;23.30;99.90;;;;;;4993084;28;20402;-66
2023/08/18 07:50:13;;;;;;;12.88;2.70;;;23.50;99.90;;;;;;4987199;28;20038;-67
2023/08/18 07:52:41;;;;;;;5.20;2.95;;;23.60;99.90;;;;;;4992785;28;20038;-66
2023/08/18 07:55:08;;;;;;;4.38;2.72;;;23.60;99.90;;;;;;4991762;28;20022;-66
2023/08/18 07:57:35;;;;;;;5.75;2.72;;;23.70;99.90;;;;;;4992038;28;20034;-67
2023/08/18 08:00:18;;;;;;;4.68;2.42;;;23.60;99.90;;;;;;4991009;28;20096;-66
2023/08/18 08:02:45;;;;;;;3.90;2.15;;;23.70;99.90;;;;;;4992601;28;20034;-66
2023/08/18 08:05:12;;;;;;;4.20;1.95;;;23.80;99.90;;;;;;4992079;28;20030;-66
2023/08/18 08:07:40;;;;;;;3.50;2.05;;;23.90;99.90;;;;;;4993072;28;20458;-66
2023/08/18 08:10:07;;;;;;;4.15;1.65;;;24.00;99.90;;;;;;4991340;28;20031;-66
2023/08/18 08:12:35;;;;;;;6.85;3.25;;;24.10;99.90;;;;;;4991408;28;20030;-67
2023/08/18 08:15:03;;;;;;;5.80;1.95;;;24.10;99.90;;;;;;4992123;28;20034;-67
2023/08/18 08:17:29;;;;;;;4.85;3.00;;;24.20;99.90;;;;;;4991869;28;20029;-67
2023/08/18 08:20:05;;;;;;;6.80;2.92;;;24.30;99.90;;;;;;4971926;28;20497;-67
2023/08/18 08:22:31;;;;;;;5.25;2.47;;;24.40;99.90;;;;;;4990961;28;20066;-67
2023/08/18 08:24:57;;;;;;;2.92;1.70;;;24.60;99.90;;;;;;4992056;28;20038;-67
2023/08/18 08:27:23;;;;;;;3.58;1.98;;;24.50;99.90;;;;;;4992926;28;20065;-67
2023/08/18 08:29:49;;;;;;;5.30;2.00;;;24.50;99.90;;;;;;4990625;28;20049;-67
2023/08/18 08:32:14;;;;;;;12.18;4.57;;;24.60;99.90;;;;;;4992703;28;20066;-67
2023/08/18 08:34:49;;;;;;;3.50;1.83;;;24.70;99.90;;;;;;4991444;28;20081;-67
2023/08/18 08:37:16;;;;;;;6.00;3.10;;;24.80;99.90;;;;;;4975509;28;20569;-67
2023/08/18 08:39:41;;;;;;;4.47;2.03;;;24.90;99.90;;;;;;4990475;28;20054;-66
2023/08/18 08:42:08;;;;;;;3.58;2.45;;;25.00;99.90;;;;;;4992465;28;20510;-66
2023/08/18 08:44:34;;;;;;;4.05;1.70;;;24.70;99.90;;;;;;4990486;28;20108;-66
2023/08/18 08:47:02;;;;;;;4.53;1.65;;;24.70;99.90;;;;;;4992538;28;20494;-68
2023/08/18 08:49:30;;;;;;;3.63;1.88;;;24.90;99.90;;;;;;4989884;28;20073;-66
2023/08/18 08:52:17;;;;;;;8.63;2.13;;;25.00;99.90;;;;;;4990852;28;20038;-66
2023/08/18 08:54:52;;;;;;;6.40;1.50;;;25.10;99.90;;;;;;4991448;28;20042;-66
2023/08/18 08:57:22;;;;;;;3.03;1.65;;;25.20;99.90;;;;;;4982692;28;20430;-66
2023/08/18 08:59:48;;;;;;;5.10;2.10;;;25.30;99.90;;;;;;4989374;28;20061;-66
2023/08/18 09:02:13;;;;;;;2.17;1.48;;;25.40;99.90;;;;;;4992155;28;20058;-66
2023/08/18 09:04:39;;;;;;;4.28;1.70;;;25.50;99.90;;;;;;4990961;28;20038;-66
2023/08/18 09:07:07;;;;;;;6.32;2.38;;;25.70;99.90;;;;;;4991814;28;20037;-66
2023/08/18 09:09:33;;;;;;;2.72;1.38;;;25.70;99.90;;;;;;4991108;28;20073;-66
2023/08/18 09:12:06;;;;;;;4.50;1.88;;;25.90;99.90;;;;;;4974502;28;20058;-66
2023/08/18 09:14:34;;;;;;;3.45;1.50;;;25.80;99.90;;;;;;4989079;28;20060;-67
2023/08/18 09:17:01;;;;;;;5.22;1.90;;;25.90;99.90;;;;;;4992048;28;20032;-66
2023/08/18 09:19:27;;;;;;;2.60;1.48;;;26.00;99.90;;;;;;4989633;28;20084;-66
2023/08/18 09:22:00;;;;;;;1.95;1.17;;;26.00;99.90;;;;;;4990423;28;20026;-67
2023/08/18 09:24:29;;;;;;;2.13;1.48;;;26.20;99.90;;;;;;4989926;28;20101;-67
2023/08/18 09:27:09;;;;;;;2.80;1.45;;;26.20;99.90;;;;;;4986971;28;20042;-67
2023/08/18 09:29:36;;;;;;;4.78;1.60;;;26.30;99.90;;;;;;4999585;28;20126;-66
2023/08/18 09:32:02;;;;;;;3.85;1.55;;;26.60;99.90;;;;;;4991873;28;20033;-67
2023/08/18 09:34:31;;;;;;;3.35;1.30;;;26.50;99.90;;;;;;4988184;28;20097;-66
2023/08/18 09:36:57;;;;;;;4.18;1.08;;;26.60;99.90;;;;;;5000674;28;20084;-66
2023/08/18 09:39:26;;;;;;;2.58;1.23;;;26.80;99.90;;;;;;4990192;28;20046;-67
2023/08/18 09:41:54;;;;;;;3.60;1.40;;;27.00;99.90;;;;;;4988895;28;20043;-70
2023/08/18 09:44:22;;;;;;;2.30;1.13;;;27.30;99.90;;;;;;4985926;28;20038;-66
2023/08/18 09:47:06;;;;;;;1.70;1.02;;;27.50;99.90;;;;;;4982910;28;20077;-66
2023/08/18 09:49:39;;;;;;;2.08;1.05;;;27.40;99.90;;;;;;4989483;28;20355;-66
2023/08/18 09:52:07;;;;;;;1.63;0.90;;;27.40;99.90;;;;;;4985885;28;20644;-67
2023/08/18 09:54:49;;;;;;;2.47;0.98;;;27.40;99.90;;;;;;4985792;28;20033;-66
2023/08/18 09:57:47;;;;;;;2.88;1.58;;;27.70;99.90;;;;;;4981085;28;20109;-66
2023/08/18 10:00:15;;;;;;;2.30;1.27;;;27.80;99.90;;;;;;4990239;28;20061;-66
2023/08/18 10:02:44;;;;;;;2.63;1.45;;;28.10;99.80;;;;;;4987873;28;20050;-65
2023/08/18 10:05:12;;;;;;;4.00;1.27;;;28.30;99.30;;;;;;4991091;28;20126;-65
2023/08/18 10:07:39;;;;;;;1.63;1.00;;;28.30;97.40;;;;;;4990347;28;20038;-66
2023/08/18 10:10:06;;;;;;;1.95;1.00;;;28.50;99.80;;;;;;4990167;28;20046;-65
2023/08/18 10:12:32;;;;;;;3.58;1.13;;;28.70;99.00;;;;;;4988666;28;20093;-65
2023/08/18 10:14:59;;;;;;;1.13;0.82;;;28.70;96.50;;;;;;4984836;28;20530;-66
2023/08/18 10:17:25;;;;;;;2.65;1.17;;;28.70;97.20;;;;;;4987570;28;20037;-64
2023/08/18 10:19:56;;;;;;;2.20;0.88;;;28.70;94.80;;;;;;4985094;28;20538;-64
2023/08/18 10:22:24;;;;;;;1.65;1.00;;;28.50;96.50;;;;;;4985826;28;20096;-64
2023/08/18 10:24:52;;;;;;;2.05;0.93;;;28.70;96.50;;;;;;5001841;28;20034;-63
2023/08/18 10:27:27;;;;;;;3.63;1.20;;;28.90;96.10;;;;;;4979255;28;20031;-64
2023/08/18 10:30:00;;;;;;;4.13;1.20;;;29.10;94.90;;;;;;4989964;28;20106;-64
2023/08/18 10:32:26;;;;;;;1.40;1.02;;;29.30;96.00;;;;;;4986201;28;20038;-64
2023/08/18 10:34:52;;;;;;;1.35;0.82;;;29.40;94.20;;;;;;4990529;28;20029;-63
2023/08/18 10:37:22;;;;;;;7.32;1.38;;;29.40;93.90;;;;;;4987178;28;20030;-64
2023/08/18 10:39:51;;;;;;;1.90;0.73;;;29.60;93.40;;;;;;4988979;28;20030;-64
2023/08/18 10:42:16;;;;;;;2.25;0.93;;;29.70;92.50;;;;;;4988399;28;20820;-64
2023/08/18 10:45:06;;;;;;;1.25;0.65;;;29.80;91.60;;;;;;4988093;28;20034;-63
2023/08/18 10:47:35;;;;;;;2.22;0.90;;;30.00;95.60;;;;;;4998146;28;20394;-65
2023/08/18 10:50:05;;;;;;;3.05;1.15;;;30.10;91.60;;;;;;4988374;28;20462;-65
2023/08/18 10:52:32;;;;;;;1.08;0.70;;;30.10;91.00;;;;;;4987917;28;20037;-67
2023/08/18 10:54:59;;;;;;;2.55;1.33;;;30.20;91.90;;;;;;4988899;28;20023;-65
2023/08/18 10:57:25;;;;;;;1.38;0.70;;;30.30;91.50;;;;;;4986647;28;20125;-64
2023/08/18 10:59:51;;;;;;;1.67;0.68;;;30.40;91.10;;;;;;4989296;28;20034;-67
2023/08/18 11:02:17;;;;;;;3.35;1.00;;;30.40;91.50;;;;;;4990255;28;20501;-65
2023/08/18 11:04:43;;;;;;;4.60;1.08;;;30.60;91.00;;;;;;4989081;28;20504;-65
2023/08/18 11:07:09;;;;;;;1.30;0.90;;;30.70;90.70;;;;;;4993305;28;20034;-65
2023/08/18 11:09:38;;;;;;;3.85;1.10;;;30.90;89.50;;;;;;4992089;28;20486;-65
2023/08/18 11:12:04;;;;;;;6.55;1.10;;;30.70;91.00;;;;;;4992831;28;20370;-65
2023/08/18 11:14:30;;;;;;;1.33;0.60;;;31.00;91.20;;;;;;4991131;28;20275;-65
2023/08/18 11:16:56;;;;;;;1.85;0.90;;;31.20;88.60;;;;;;4992992;28;20034;-65
2023/08/18 11:19:22;;;;;;;4.40;1.13;;;31.40;90.20;;;;;;4993765;28;20080;-64
2023/08/18 11:21:48;;;;;;;2.40;0.80;;;31.50;90.80;;;;;;4992201;28;20375;-65
2023/08/18 11:24:13;;;;;;;4.00;1.30;;;31.60;87.20;;;;;;4989696;28;20341;-65
2023/08/18 11:26:40;;;;;;;3.47;1.00;;;31.60;88.80;;;;;;4991543;28;20133;-64
2023/08/18 11:29:07;;;;;;;3.20;0.85;;;31.70;88.70;;;;;;4991904;28;20034;-64
2023/08/18 11:31:33;;;;;;;6.20;1.20;;;31.70;86.80;;;;;;4990867;28;20394;-64
2023/08/18 11:33:59;;;;;;;3.97;0.98;;;31.80;86.50;;;;;;4991794;28;20029;-64
2023/08/18 11:36:30;;;;;;;1.20;0.80;;;32.00;86.10;;;;;;4992944;28;20482;-64
2023/08/18 11:39:07;;;;;;;3.88;1.13;;;32.00;82.50;;;;;;4992220;28;20053;-64
2023/08/18 11:41:37;;;;;;;2.28;0.90;;;31.80;81.70;;;;;;4992376;28;20031;-64
2023/08/18 11:44:08;;;;;;;1.25;0.85;;;32.20;85.20;;;;;;4991941;28;20030;-64
2023/08/18 11:46:36;;;;;;;2.17;1.00;;;32.10;84.50;;;;;;4973590;28;20117;-65
2023/08/18 11:49:16;;;;;;;4.18;1.00;;;32.40;85.70;;;;;;4993743;28;20046;-65
2023/08/18 11:52:05;;;;;;;1.60;0.95;;;32.70;83.50;;;;;;4992535;28;20084;-64
2023/08/18 11:54:38;;;;;;;1.58;1.10;;;33.00;82.90;;;;;;4988059;28;20487;-65
2023/08/18 11:57:06;;;;;;;3.50;1.15;;;32.50;80.10;;;;;;4990604;28;20136;-64
2023/08/18 11:59:32;;;;;;;1.55;0.60;;;32.50;83.10;;;;;;4992828;28;20026;-65
2023/08/18 12:02:06;;;;;;;2.88;0.90;;;32.80;83.50;;;;;;4993285;28;20505;-64
2023/08/18 12:04:32;;;;;;;2.20;1.25;;;32.90;79.90;;;;;;4992316;28;20092;-64
2023/08/18 12:06:59;;;;;;;0.75;0.50;;;32.80;78.50;;;;;;4992866;28;20113;-64
2023/08/18 12:09:25;;;;;;;1.50;0.70;;;32.80;79.00;;;;;;4993316;28;20038;-65
2023/08/18 12:11:51;;;;;;;0.68;0.50;;;33.20;77.70;;;;;;4992286;28;20034;-64
2023/08/18 12:14:18;;;;;;;0.95;0.52;;;33.40;77.70;;;;;;4991550;28;20031;-64
2023/08/18 12:16:45;;;;;;;1.20;0.55;;;33.00;77.00;;;;;;4993060;28;20106;-64
2023/08/18 12:19:11;;;;;;;1.33;0.60;;;33.30;77.80;;;;;;4991887;28;20033;-64
2023/08/18 12:21:38;;;;;;;1.00;0.50;;;33.30;77.40;;;;;;4991596;28;20077;-64
2023/08/18 12:24:07;;;;;;;2.13;0.80;;;33.30;79.80;;;;;;4990110;28;20092;-64
2023/08/18 12:26:34;;;;;;;2.13;1.07;;;33.30;73.90;;;;;;4992873;28;20475;-64
2023/08/18 12:29:03;;;;;;;3.03;1.02;;;33.50;74.50;;;;;;4992008;28;20285;-64
2023/08/18 12:31:31;;;;;;;0.87;0.53;;;33.50;74.60;;;;;;4980171;28;20042;-65
2023/08/18 12:33:58;;;;;;;1.33;0.50;;;33.00;75.50;;;;;;4989314;28;20026;-64
2023/08/18 12:36:24;;;;;;;3.13;0.63;;;33.30;73.60;;;;;;4991411;28;20030;-64
2023/08/18 12:38:49;;;;;;;1.05;0.50;;;33.40;73.10;;;;;;4992535;28;20045;-64
2023/08/18 12:41:16;;;;;;;3.13;0.93;;;33.60;71.50;;;;;;4991684;28;20505;-64
2023/08/18 12:43:42;;;;;;;2.05;0.75;;;33.20;72.00;;;;;;4995552;28;20049;-64
2023/08/18 12:46:08;;;;;;;1.45;0.63;;;33.50;71.90;;;;;;4991826;28;20034;-64
2023/08/18 12:48:34;;;;;;;1.65;0.80;;;33.90;71.30;;;;;;4991226;28;20483;-64